Time;durP1;ratioP1;P1;durP2;ratioP2;P2;SDS_P1;SDS_P2;PMS_P1;PMS_P2;Temp;Humidity;BMP_temperature;BMP_pressure;BME280_temperature;BME280_humidity;BME280_pressure;Samples;Min_cycle;Max_cycle;Signal;HPM_P1;HPM_P2
2023/10/06 00:01:42;;;;;;;19.10;14.60;;;;;;;;;;5070227;28;20818;-61
2023/10/06 00:04:15;;;;;;;23.00;14.75;;;;;;;;;;5074777;28;20030;-61
2023/10/06 00:06:43;;;;;;;21.52;15.55;;;;;;;;;;5057363;28;20020;-61
2023/10/06 00:09:19;;;;;;;21.83;15.63;;;;;;;;;;5078701;28;20027;-61
2023/10/06 00:11:46;;;;;;;19.17;15.10;;;;;;;;;;5071606;28;20049;-61
2023/10/06 00:14:30;;;;;;;20.92;15.27;;;;;;;;;;5055764;28;20028;-61
2023/10/06 00:16:59;;;;;;;20.00;15.30;;;;;;;;;;5053012;28;20052;-59
2023/10/06 00:24:42;;;;;;;18.40;14.95;;;;;;;;;;5068391;28;20043;-61
2023/10/06 00:27:11;;;;;;;18.27;14.75;;;;;;;;;;5077142;28;20028;-61
2023/10/06 00:29:54;;;;;;;18.30;14.05;;;;;;;;;;5055196;28;20025;-61
2023/10/06 00:32:26;;;;;;;17.20;14.52;;;;;;;;;;5058109;28;20023;-61
2023/10/06 00:35:29;;;;;;;18.20;14.93;;;;;;;;;;5066106;28;20025;-61
2023/10/06 00:37:43;;;;;;;20.55;14.30;;;;;;;;;;5073701;28;20486;-61
2023/10/06 00:40:19;;;;;;;20.42;14.48;;;;;;;;;;5069050;28;20069;-61
2023/10/06 00:42:49;;;;;;;18.27;14.15;;;;;;;;;;5077594;28;20107;-62
2023/10/06 00:45:14;;;;;;;19.58;14.75;;;;;;;;;;5051650;28;20224;-61
2023/10/06 00:47:42;;;;;;;19.23;15.20;;;;;;;;;;5068307;28;20044;-61
2023/10/06 00:50:07;;;;;;;18.98;14.10;;;;;;;;;;5068504;28;20044;-61
2023/10/06 00:52:34;;;;;;;17.77;14.35;;;;;;;;;;5069772;28;20461;-61
2023/10/06 00:55:02;;;;;;;19.98;14.70;;;;;;;;;;5055546;28;20032;-61
2023/10/06 00:57:30;;;;;;;17.00;14.32;;;;;;;;;;5036462;28;20020;-61
2023/10/06 00:59:57;;;;;;;17.88;14.05;;;;;;;;;;5064162;28;20028;-61
2023/10/06 01:02:23;;;;;;;18.13;14.98;;;;;;;;;;5077135;28;20012;-62
2023/10/06 01:04:52;;;;;;;18.98;14.98;;;;;;;;;;5080042;27;20144;-61
2023/10/06 01:07:18;;;;;;;18.42;14.75;;;;;;;;;;5060649;28;20194;-61
2023/10/06 01:10:07;;;;;;;22.95;15.20;;;;;;;;;;5055854;28;20031;-61
2023/10/06 01:12:32;;;;;;;17.35;14.10;;;;;;;;;;5074813;28;20031;-61
2023/10/06 01:15:16;;;;;;;18.00;14.27;;;;;;;;;;5069303;28;20016;-61
2023/10/06 01:17:42;;;;;;;16.73;13.13;;;;;;;;;;5076946;28;20020;-61
2023/10/06 01:20:10;;;;;;;19.50;14.75;;;;;;;;;;5068171;28;20028;-61
2023/10/06 01:22:41;;;;;;;16.30;13.65;;;;;;;;;;5033471;28;20037;-61
2023/10/06 01:25:22;;;;;;;17.98;13.77;;;;;;;;;;5067912;28;20064;-61
2023/10/06 01:27:50;;;;;;;16.55;13.65;;;;;;;;;;5064984;28;20589;-61
2023/10/06 01:32:42;;;;;;;17.83;14.02;;;;;;;;;;5059792;28;20033;-63
2023/10/06 01:35:12;;;;;;;18.48;13.85;;;;;;;;;;5077851;28;20024;-61
2023/10/06 01:37:44;;;;;;;18.73;13.68;;;;;;;;;;5058577;28;20036;-61
2023/10/06 01:42:52;;;;;;;20.70;13.85;;;;;;;;;;5066522;28;20043;-61
2023/10/06 01:45:21;;;;;;;18.58;13.30;;;;;;;;;;5064532;28;20040;-61
2023/10/06 01:47:47;;;;;;;15.67;13.07;;;;;;;;;;5066905;28;20464;-62
2023/10/06 01:50:13;;;;;;;16.30;13.45;;;;;;;;;;5071608;28;20141;-60
2023/10/06 01:52:41;;;;;;;15.63;13.35;;;;;;;;;;5058601;28;20082;-60
2023/10/06 01:55:21;;;;;;;19.15;14.00;;;;;;;;;;5051752;28;21163;-60
2023/10/06 01:57:47;;;;;;;17.10;13.65;;;;;;;;;;5085438;28;20020;-60
2023/10/06 02:00:17;;;;;;;21.73;13.45;;;;;;;;;;5075270;28;20016;-60
2023/10/06 02:02:43;;;;;;;16.75;13.00;;;;;;;;;;5045594;28;20027;-62
2023/10/06 02:05:12;;;;;;;17.10;13.70;;;;;;;;;;5057585;28;20793;-59
2023/10/06 02:07:44;;;;;;;16.52;12.98;;;;;;;;;;5056411;28;20023;-60
2023/10/06 02:10:13;;;;;;;16.17;13.68;;;;;;;;;;5068686;28;20538;-60
2023/10/06 02:12:41;;;;;;;17.40;13.95;;;;;;;;;;5072225;28;20030;-61
2023/10/06 02:15:10;;;;;;;18.23;14.05;;;;;;;;;;5069926;28;20024;-61
2023/10/06 02:17:41;;;;;;;18.65;13.73;;;;;;;;;;5061082;28;20790;-60
2023/10/06 02:20:13;;;;;;;18.48;14.07;;;;;;;;;;5058250;28;20013;-63
2023/10/06 02:22:39;;;;;;;16.52;13.30;;;;;;;;;;5046929;28;20049;-60
2023/10/06 02:25:06;;;;;;;16.77;13.80;;;;;;;;;;5058443;28;20036;-61
2023/10/06 02:27:41;;;;;;;17.25;13.13;;;;;;;;;;5068273;28;20024;-61
2023/10/06 02:30:10;;;;;;;17.30;13.50;;;;;;;;;;5067696;28;21151;-60
2023/10/06 02:32:38;;;;;;;18.55;13.55;;;;;;;;;;5068721;28;20050;-61
2023/10/06 02:35:06;;;;;;;16.63;13.77;;;;;;;;;;5058706;28;20025;-61
2023/10/06 02:37:32;;;;;;;18.60;12.60;;;;;;;;;;5071071;28;20023;-61
2023/10/06 02:40:00;;;;;;;20.17;14.10;;;;;;;;;;5049994;28;20368;-60
2023/10/06 02:42:25;;;;;;;17.88;13.93;;;;;;;;;;5050231;28;20027;-61
2023/10/06 02:44:51;;;;;;;18.13;14.00;;;;;;;;;;5070044;28;20020;-60
2023/10/06 02:47:17;;;;;;;17.33;14.43;;;;;;;;;;5057641;28;20020;-60
2023/10/06 02:49:48;;;;;;;18.38;14.38;;;;;;;;;;5066491;28;20123;-60
2023/10/06 02:52:20;;;;;;;17.90;14.13;;;;;;;;;;5068065;28;20114;-62
2023/10/06 02:55:09;;;;;;;20.60;15.07;;;;;;;;;;5053604;28;20119;-60
2023/10/06 02:57:42;;;;;;;19.58;14.18;;;;;;;;;;5067014;28;20032;-61
2023/10/06 03:03:03;;;;;;;20.33;14.50;;;;;;;;;;5066748;28;20244;-61
2023/10/06 03:05:39;;;;;;;16.70;14.02;;;;;;;;;;5048574;28;20033;-61
2023/10/06 03:08:11;;;;;;;19.45;14.20;;;;;;;;;;5064214;28;20024;-62
2023/10/06 03:10:43;;;;;;;19.45;14.52;;;;;;;;;;5061047;28;20108;-61
2023/10/06 03:13:10;;;;;;;18.35;14.13;;;;;;;;;;5079163;27;20020;-61
2023/10/06 03:15:45;;;;;;;21.42;16.05;;;;;;;;;;5067024;28;20020;-60
2023/10/06 03:18:12;;;;;;;19.60;15.00;;;;;;;;;;5066808;28;20073;-62
2023/10/06 03:20:41;;;;;;;18.90;15.32;;;;;;;;;;5061885;28;20123;-60
2023/10/06 03:23:17;;;;;;;20.85;15.35;;;;;;;;;;5051721;28;20025;-61
2023/10/06 03:25:42;;;;;;;20.05;15.52;;;;;;;;;;5060227;28;20071;-60
2023/10/06 03:28:10;;;;;;;18.92;15.50;;;;;;;;;;5063493;28;20625;-62
2023/10/06 03:30:36;;;;;;;20.80;15.35;;;;;;;;;;5065370;28;20047;-62
2023/10/06 03:33:12;;;;;;;19.27;15.70;;;;;;;;;;5062020;28;20463;-60
2023/10/06 03:35:48;;;;;;;20.63;16.17;;;;;;;;;;5047782;28;20693;-61
2023/10/06 03:40:53;;;;;;;20.20;15.60;;;;;;;;;;5067792;28;20028;-61
2023/10/06 03:46:03;;;;;;;21.77;15.82;;;;;;;;;;5072499;28;20240;-59
2023/10/06 03:48:31;;;;;;;20.20;15.50;;;;;;;;;;5066686;28;20459;-59
2023/10/06 03:50:59;;;;;;;21.02;14.95;;;;;;;;;;5062772;28;20099;-61
2023/10/06 03:53:25;;;;;;;21.63;15.82;;;;;;;;;;5059303;28;20032;-61
2023/10/06 03:55:50;;;;;;;24.95;15.80;;;;;;;;;;5042283;28;20541;-60
2023/10/06 03:58:16;;;;;;;20.93;15.33;;;;;;;;;;5062691;28;20027;-61
2023/10/06 04:00:47;;;;;;;21.63;15.20;;;;;;;;;;5042337;28;20269;-59
2023/10/06 04:03:17;;;;;;;21.08;15.70;;;;;;;;;;5063814;28;21055;-59
2023/10/06 04:05:44;;;;;;;;;;;;;;;;;;5063571;28;20097;-59
2023/10/06 04:08:15;;;;;;;23.83;15.10;;;;;;;;;;5064703;28;19913;-60
2023/10/06 04:10:42;;;;;;;23.55;16.35;;;;;;;;;;5050974;28;20031;-59
2023/10/06 04:13:10;;;;;;;22.95;16.55;;;;;;;;;;5062159;28;20120;-64
2023/10/06 04:15:38;;;;;;;28.33;15.43;;;;;;;;;;5063588;28;20027;-60
2023/10/06 04:18:10;;;;;;;24.27;15.70;;;;;;;;;;5063796;28;20027;-61
2023/10/06 04:20:41;;;;;;;22.23;16.15;;;;;;;;;;5064936;28;20716;-61
2023/10/06 04:23:07;;;;;;;24.23;15.80;;;;;;;;;;5073222;28;20662;-60
2023/10/06 04:25:37;;;;;;;24.17;15.82;;;;;;;;;;5065942;28;20021;-62
2023/10/06 04:28:03;;;;;;;21.95;15.70;;;;;;;;;;5064361;28;20028;-60
2023/10/06 04:30:29;;;;;;;22.25;14.90;;;;;;;;;;5060531;28;20047;-60
2023/10/06 04:32:55;;;;;;;20.60;15.20;;;;;;;;;;5047993;28;20016;-62
2023/10/06 04:35:24;;;;;;;20.80;15.05;;;;;;;;;;5058783;28;20589;-62
2023/10/06 04:37:49;;;;;;;21.88;15.80;;;;;;;;;;5062736;28;20024;-60
2023/10/06 04:40:17;;;;;;;19.20;15.32;;;;;;;;;;5059397;28;20078;-61
2023/10/06 04:42:42;;;;;;;23.02;15.23;;;;;;;;;;5049138;28;20040;-65
2023/10/06 04:45:08;;;;;;;24.37;15.37;;;;;;;;;;5061622;28;20052;-59
2023/10/06 04:47:36;;;;;;;22.50;15.93;;;;;;;;;;5059759;28;20323;-60
2023/10/06 04:50:02;;;;;;;20.20;15.68;;;;;;;;;;5059326;28;20093;-61
2023/10/06 04:52:31;;;;;;;19.75;15.40;;;;;;;;;;5065830;27;20111;-61
2023/10/06 04:54:56;;;;;;;23.20;15.97;;;;;;;;;;5069407;28;20144;-61
2023/10/06 04:57:21;;;;;;;24.73;16.17;;;;;;;;;;5079321;27;20047;-61
2023/10/06 04:59:47;;;;;;;28.07;16.20;;;;;;;;;;5096083;27;20845;-61
2023/10/06 05:02:14;;;;;;;26.43;14.93;;;;;;;;;;5060643;28;20362;-61
2023/10/06 05:04:42;;;;;;;24.80;15.23;;;;;;;;;;5078245;28;20281;-61
2023/10/06 05:07:07;;;;;;;21.83;15.65;;;;;;;;;;5077778;28;20256;-61
2023/10/06 05:09:33;;;;;;;20.67;15.23;;;;;;;;;;5065102;28;20140;-61
2023/10/06 05:11:58;;;;;;;21.33;16.23;;;;;;;;;;5088035;28;20253;-61
2023/10/06 05:14:27;;;;;;;22.50;16.07;;;;;;;;;;5065131;28;20343;-60
2023/10/06 05:16:55;;;;;;;20.50;15.80;;;;;;;;;;5096228;27;20418;-59
2023/10/06 05:19:20;;;;;;;25.75;16.13;;;;;;;;;;5080213;27;20024;-60
2023/10/06 05:21:47;;;;;;;23.45;16.05;;;;;;;;;;5081741;27;20035;-61
2023/10/06 05:24:12;;;;;;;24.67;15.80;;;;;;;;;;5071628;28;20077;-61
2023/10/06 05:26:38;;;;;;;22.63;15.60;;;;;;;;;;5085531;28;20212;-60
2023/10/06 05:29:05;;;;;;;24.30;15.77;;;;;;;;;;5091510;28;20352;-61
2023/10/06 05:31:30;;;;;;;22.80;15.30;;;;;;;;;;5067886;28;20316;-61
2023/10/06 05:33:56;;;;;;;19.53;14.97;;;;;;;;;;5089981;28;20572;-61
2023/10/06 05:36:22;;;;;;;20.88;15.70;;;;;;;;;;5071353;28;20582;-61
2023/10/06 05:38:50;;;;;;;21.55;14.73;;;;;;;;;;5073321;28;20475;-59
2023/10/06 05:41:15;;;;;;;20.38;14.88;;;;;;;;;;5077108;28;20031;-61
2023/10/06 05:43:45;;;;;;;22.87;15.30;;;;;;;;;;5090677;28;20130;-61
2023/10/06 05:46:11;;;;;;;21.88;15.20;;;;;;;;;;5088439;28;20265;-62
2023/10/06 05:48:39;;;;;;;20.10;15.00;;;;;;;;;;5079955;28;20016;-60
2023/10/06 05:51:08;;;;;;;21.63;14.45;;;;;;;;;;5054390;28;20632;-61
2023/10/06 05:53:41;;;;;;;20.80;15.07;;;;;;;;;;5070078;28;20304;-61
2023/10/06 05:56:09;;;;;;;18.98;14.73;;;;;;;;;;5058365;28;20027;-59
2023/10/06 05:58:37;;;;;;;22.80;14.30;;;;;;;;;;5072821;28;20020;-60
2023/10/06 06:01:13;;;;;;;19.85;14.48;;;;;;;;;;5068215;28;20093;-64
2023/10/06 06:03:39;;;;;;;19.67;14.20;;;;;;;;;;5066141;28;20054;-58
2023/10/06 06:06:10;;;;;;;18.83;14.18;;;;;;;;;;5075641;28;20045;-60
2023/10/06 06:08:37;;;;;;;19.02;14.27;;;;;;;;;;5070342;28;20682;-59
2023/10/06 06:11:05;;;;;;;19.23;14.35;;;;;;;;;;5076511;28;20126;-61
2023/10/06 06:13:30;;;;;;;19.05;14.30;;;;;;;;;;5063388;28;20107;-60
2023/10/06 06:15:55;;;;;;;19.45;14.05;;;;;;;;;;5059637;28;20401;-61
2023/10/06 06:18:21;;;;;;;19.63;13.73;;;;;;;;;;5068299;28;20056;-62
2023/10/06 06:20:46;;;;;;;18.03;13.97;;;;;;;;;;5051838;28;20043;-60
2023/10/06 06:23:15;;;;;;;18.37;13.70;;;;;;;;;;5074922;28;20307;-60
2023/10/06 06:25:41;;;;;;;20.27;14.93;;;;;;;;;;5070744;28;20281;-60
2023/10/06 06:28:08;;;;;;;23.27;14.68;;;;;;;;;;5078701;28;20016;-60
2023/10/06 06:30:42;;;;;;;18.63;14.80;;;;;;;;;;5069996;28;20015;-61
2023/10/06 06:33:08;;;;;;;20.27;14.63;;;;;;;;;;5076674;28;20028;-61
2023/10/06 06:35:35;;;;;;;19.55;15.07;;;;;;;;;;5058426;28;20027;-61
2023/10/06 06:38:04;;;;;;;20.35;14.18;;;;;;;;;;5076783;28;20024;-61
2023/10/06 06:40:33;;;;;;;18.52;14.23;;;;;;;;;;5065939;28;20051;-61
2023/10/06 06:42:59;;;;;;;19.65;14.60;;;;;;;;;;5078648;28;20024;-61
2023/10/06 06:45:25;;;;;;;21.05;15.48;;;;;;;;;;5067996;28;20024;-61
2023/10/06 06:47:50;;;;;;;18.88;14.70;;;;;;;;;;5074041;28;21435;-61
2023/10/06 06:50:17;;;;;;;19.20;14.80;;;;;;;;;;5075792;28;20058;-61
2023/10/06 06:52:50;;;;;;;19.73;14.27;;;;;;;;;;5063540;28;20020;-60
2023/10/06 06:55:17;;;;;;;19.48;13.57;;;;;;;;;;5060408;28;20432;-61
2023/10/06 06:57:43;;;;;;;17.67;13.35;;;;;;;;;;5067301;28;20023;-62
2023/10/06 07:00:15;;;;;;;20.95;14.63;;;;;;;;;;5072851;28;20035;-61
2023/10/06 07:02:43;;;;;;;20.27;15.23;;;;;;;;;;5056576;28;20465;-61
2023/10/06 07:05:10;;;;;;;26.85;15.20;;;;;;;;;;5070028;28;20111;-61
2023/10/06 07:07:36;;;;;;;39.33;16.77;;;;;;;;;;5060229;28;20069;-61
2023/10/06 07:10:06;;;;;;;27.50;14.68;;;;;;;;;;5052703;28;20021;-61
2023/10/06 07:12:34;;;;;;;35.03;16.50;;;;;;;;;;5073239;28;20479;-60
2023/10/06 07:14:59;;;;;;;21.52;15.05;;;;;;;;;;5060536;28;20035;-61
2023/10/06 07:17:25;;;;;;;21.00;14.82;;;;;;;;;;5071833;28;20016;-61
2023/10/06 07:19:50;;;;;;;19.83;14.68;;;;;;;;;;5078760;28;20011;-60
2023/10/06 07:22:15;;;;;;;18.40;14.32;;;;;;;;;;5067037;28;20109;-61
2023/10/06 07:24:40;;;;;;;20.83;14.83;;;;;;;;;;5086896;28;20024;-61
2023/10/06 07:27:08;;;;;;;22.50;15.20;;;;;;;;;;5074276;28;21054;-61
2023/10/06 07:29:33;;;;;;;21.85;14.90;;;;;;;;;;5077717;28;20020;-62
2023/10/06 07:32:00;;;;;;;19.27;15.05;;;;;;;;;;5075542;28;20109;-61
2023/10/06 07:34:26;;;;;;;19.45;14.25;;;;;;;;;;5075726;28;20027;-62
2023/10/06 07:36:51;;;;;;;20.50;14.90;;;;;;;;;;5075507;28;20043;-60
2023/10/06 07:39:20;;;;;;;20.00;15.13;;;;;;;;;;5071420;28;20333;-60
2023/10/06 07:41:46;;;;;;;22.55;14.48;;;;;;;;;;5071772;28;20009;-59
2023/10/06 07:44:14;;;;;;;19.15;14.18;;;;;;;;;;5074030;28;20039;-61
2023/10/06 07:46:40;;;;;;;18.73;13.88;;;;;;;;;;5073906;28;20027;-61
2023/10/06 07:49:07;;;;;;;20.38;15.35;;;;;;;;;;5068952;28;20036;-61
2023/10/06 07:51:35;;;;;;;19.77;13.85;;;;;;;;;;5074151;28;20099;-60
2023/10/06 07:54:00;;;;;;;18.17;13.50;;;;;;;;;;5076709;28;20077;-64
2023/10/06 07:56:28;;;;;;;17.63;13.50;;;;;;;;;;5070702;28;20027;-61
2023/10/06 07:58:53;;;;;;;18.80;13.60;;;;;;;;;;5054278;28;20760;-60
2023/10/06 08:01:19;;;;;;;20.10;13.65;;;;;;;;;;5060798;28;20024;-60
2023/10/06 08:03:45;;;;;;;18.00;13.80;;;;;;;;;;5075960;28;20847;-60
2023/10/06 08:06:11;;;;;;;16.75;12.73;;;;;;;;;;5083688;28;20068;-64
2023/10/06 08:08:37;;;;;;;19.13;13.52;;;;;;;;;;5041755;28;20008;-61
2023/10/06 08:11:06;;;;;;;19.52;14.35;;;;;;;;;;5078637;28;20020;-62
2023/10/06 08:13:33;;;;;;;18.85;13.00;;;;;;;;;;5070758;28;20023;-59
2023/10/06 08:15:58;;;;;;;17.00;13.02;;;;;;;;;;5077347;28;20553;-61
2023/10/06 08:18:28;;;;;;;15.70;12.52;;;;;;;;;;5058265;28;20044;-61
2023/10/06 08:20:54;;;;;;;17.15;12.68;;;;;;;;;;5078857;28;20060;-61
2023/10/06 08:23:20;;;;;;;16.95;13.32;;;;;;;;;;5069935;28;20023;-62
2023/10/06 08:25:46;;;;;;;16.38;12.70;;;;;;;;;;5053006;28;20687;-61
2023/10/06 08:28:14;;;;;;;15.73;12.45;;;;;;;;;;5067620;28;20016;-60
2023/10/06 08:30:40;;;;;;;15.48;12.70;;;;;;;;;;5056341;28;20016;-60
2023/10/06 08:33:09;;;;;;;18.67;12.52;;;;;;;;;;5056488;28;20025;-61
2023/10/06 08:35:36;;;;;;;18.37;13.47;;;;;;;;;;5072130;28;20573;-60
2023/10/06 08:38:02;;;;;;;16.50;12.20;;;;;;;;;;5080657;28;20012;-61
2023/10/06 08:40:29;;;;;;;17.10;12.18;;;;;;;;;;5070718;28;20020;-61
2023/10/06 08:42:56;;;;;;;18.13;12.57;;;;;;;;;;5066914;28;20676;-62
2023/10/06 08:45:25;;;;;;;16.25;12.85;;;;;;;;;;5071434;28;20036;-60
2023/10/06 08:47:58;;;;;;;17.42;12.23;;;;;;;;;;5068696;28;20111;-61
2023/10/06 08:50:27;;;;;;;17.27;12.13;;;;;;;;;;5070720;28;20605;-61
2023/10/06 08:52:53;;;;;;;;;;;;;;;;;;5092541;27;20044;-61
2023/10/06 08:55:19;;;;;;;15.57;12.10;;;;;;;;;;5077649;28;20060;-60
2023/10/06 08:57:47;;;;;;;15.63;11.85;;;;;;;;;;5084298;28;20023;-63
2023/10/06 09:00:17;;;;;;;15.73;12.10;;;;;;;;;;5088910;28;20061;-61
2023/10/06 09:02:44;;;;;;;19.05;11.65;;;;;;;;;;5070477;28;20967;-61
2023/10/06 09:05:10;;;;;;;17.45;12.73;;;;;;;;;;5092851;28;20059;-61
2023/10/06 09:07:35;;;;;;;17.20;12.38;;;;;;;;;;5075563;28;20513;-60
2023/10/06 09:10:15;;;;;;;16.15;11.88;;;;;;;;;;5069874;28;20027;-61
2023/10/06 09:12:42;;;;;;;16.08;12.13;;;;;;;;;;5082773;28;20463;-61
2023/10/06 09:15:14;;;;;;;15.18;12.07;;;;;;;;;;5076791;28;20030;-61
2023/10/06 09:17:40;;;;;;;17.58;12.05;;;;;;;;;;5069371;28;20830;-61
2023/10/06 09:20:08;;;;;;;17.17;12.23;;;;;;;;;;5086666;27;20037;-61
2023/10/06 09:22:43;;;;;;;15.13;12.10;;;;;;;;;;5085309;28;20019;-59
2023/10/06 09:25:11;;;;;;;16.67;12.38;;;;;;;;;;5088230;27;20150;-61
2023/10/06 09:27:37;;;;;;;15.52;11.85;;;;;;;;;;5070896;28;20023;-61
2023/10/06 09:30:07;;;;;;;16.15;11.98;;;;;;;;;;5088607;28;20012;-60
2023/10/06 09:32:32;;;;;;;15.43;12.07;;;;;;;;;;5094190;27;20026;-61
2023/10/06 09:35:02;;;;;;;17.37;12.20;;;;;;;;;;5082356;28;20032;-60
2023/10/06 09:37:29;;;;;;;16.08;12.50;;;;;;;;;;5087979;28;20337;-61
2023/10/06 09:39:59;;;;;;;13.68;11.57;;;;;;;;;;5077490;28;20594;-60
2023/10/06 09:42:29;;;;;;;15.65;12.98;;;;;;;;;;5088080;28;20166;-60
2023/10/06 09:45:06;;;;;;;18.48;12.77;;;;;;;;;;5090991;28;20055;-58
2023/10/06 09:47:35;;;;;;;18.65;13.27;;;;;;;;;;5076367;28;20652;-60
2023/10/06 09:50:01;;;;;;;16.50;12.93;;;;;;;;;;5077354;28;20153;-59
2023/10/06 09:52:28;;;;;;;15.75;11.98;;;;;;;;;;5072270;28;20035;-60
2023/10/06 09:54:55;;;;;;;15.98;12.25;;;;;;;;;;5073192;28;20020;-59
2023/10/06 09:57:20;;;;;;;15.80;12.45;;;;;;;;;;5067361;28;20785;-59
2023/10/06 09:59:46;;;;;;;17.70;12.68;;;;;;;;;;5056290;28;20029;-60
2023/10/06 10:02:12;;;;;;;18.67;12.57;;;;;;;;;;5076345;28;20030;-60
2023/10/06 10:04:38;;;;;;;17.33;12.75;;;;;;;;;;5063050;28;20028;-60
2023/10/06 10:07:04;;;;;;;17.23;12.70;;;;;;;;;;5045351;28;20017;-59
2023/10/06 10:09:34;;;;;;;18.20;13.13;;;;;;;;;;5051626;28;20024;-60
2023/10/06 10:12:04;;;;;;;17.58;12.57;;;;;;;;;;5078048;28;20020;-60
2023/10/06 10:14:49;;;;;;;17.30;12.77;;;;;;;;;;5068696;28;21406;-61
2023/10/06 10:17:16;;;;;;;19.48;13.13;;;;;;;;;;5066147;28;20043;-60
2023/10/06 10:19:43;;;;;;;19.35;13.82;;;;;;;;;;5067000;28;20016;-60
2023/10/06 10:22:13;;;;;;;22.40;14.48;;;;;;;;;;5071476;28;20200;-59
2023/10/06 10:24:38;;;;;;;19.10;12.93;;;;;;;;;;5072689;28;20028;-60
2023/10/06 10:27:12;;;;;;;17.10;12.90;;;;;;;;;;5066947;28;20392;-61
2023/10/06 10:29:37;;;;;;;20.10;13.82;;;;;;;;;;5061404;28;20024;-59
2023/10/06 10:32:22;;;;;;;19.37;14.33;;;;;;;;;;5054186;28;20137;-59
2023/10/06 10:35:12;;;;;;;20.20;14.68;;;;;;;;;;5058279;28;20274;-60
2023/10/06 10:37:56;;;;;;;21.83;13.88;;;;;;;;;;5054336;28;20013;-60
2023/10/06 10:40:25;;;;;;;15.90;13.55;;;;;;;;;;5066146;28;20522;-60
2023/10/06 10:42:57;;;;;;;19.58;13.73;;;;;;;;;;5073379;28;20016;-60
2023/10/06 10:45:36;;;;;;;19.70;14.40;;;;;;;;;;5058019;28;20040;-59
2023/10/06 10:48:13;;;;;;;20.30;13.88;;;;;;;;;;5082884;28;20437;-60
2023/10/06 10:51:05;;;;;;;18.85;14.02;;;;;;;;;;5057390;28;20052;-60
2023/10/06 10:53:32;;;;;;;21.23;14.82;;;;;;;;;;5077027;28;20027;-61
2023/10/06 10:55:57;;;;;;;19.15;14.52;;;;;;;;;;5074951;28;20031;-59
2023/10/06 10:58:41;;;;;;;19.58;15.23;;;;;;;;;;5080534;28;20050;-60
2023/10/06 11:01:31;;;;;;;19.83;15.10;;;;;;;;;;5076618;28;20505;-59
2023/10/06 11:04:09;;;;;;;23.27;15.48;;;;;;;;;;5067888;28;20074;-61
2023/10/06 11:06:35;;;;;;;23.70;15.95;;;;;;;;;;5048902;28;20016;-59
2023/10/06 11:09:12;;;;;;;23.55;16.65;;;;;;;;;;5059796;28;20027;-60
2023/10/06 11:11:38;;;;;;;24.30;17.48;;;;;;;;;;5069481;28;20043;-58
2023/10/06 11:14:03;;;;;;;25.15;16.88;;;;;;;;;;5062541;28;20031;-60
2023/10/06 11:16:32;;;;;;;21.92;16.17;;;;;;;;;;5057474;28;20028;-60
2023/10/06 11:18:57;;;;;;;24.33;16.97;;;;;;;;;;5072515;28;20137;-59
2023/10/06 11:21:26;;;;;;;22.23;16.85;;;;;;;;;;5068841;28;20162;-59
2023/10/06 11:23:51;;;;;;;23.00;17.50;;;;;;;;;;5059042;28;20070;-59
2023/10/06 11:26:34;;;;;;;21.03;16.63;;;;;;;;;;5061207;28;20027;-60
2023/10/06 11:29:00;;;;;;;25.15;17.23;;;;;;;;;;5069767;28;20020;-60
2023/10/06 11:31:29;;;;;;;23.05;17.90;;;;;;;;;;5066847;28;20082;-60
2023/10/06 11:33:55;;;;;;;26.23;17.48;;;;;;;;;;5056872;28;20455;-60
2023/10/06 11:36:20;;;;;;;21.95;16.90;;;;;;;;;;5069606;28;20519;-60
2023/10/06 11:38:46;;;;;;;23.70;17.85;;;;;;;;;;5073261;28;20020;-62
2023/10/06 11:41:14;;;;;;;21.35;16.85;;;;;;;;;;5069973;28;20841;-62
2023/10/06 11:43:39;;;;;;;23.10;17.00;;;;;;;;;;5068821;28;20027;-62
2023/10/06 11:46:07;;;;;;;22.10;17.53;;;;;;;;;;5051461;28;20257;-62
2023/10/06 11:48:38;;;;;;;21.65;16.90;;;;;;;;;;5071257;27;20016;-62
2023/10/06 11:51:06;;;;;;;25.63;17.60;;;;;;;;;;5095715;27;20016;-62
2023/10/06 11:53:32;;;;;;;20.35;16.38;;;;;;;;;;5076747;27;20019;-59
2023/10/06 11:56:07;;;;;;;21.33;16.60;;;;;;;;;;5070313;27;20483;-62
2023/10/06 11:58:35;;;;;;;22.60;16.58;;;;;;;;;;5073275;28;20557;-63
2023/10/06 12:01:01;;;;;;;20.40;15.67;;;;;;;;;;5084491;27;20024;-62
2023/10/06 12:03:42;;;;;;;22.85;15.93;;;;;;;;;;5093596;27;20015;-62
2023/10/06 12:06:12;;;;;;;21.58;16.13;;;;;;;;;;5096969;27;20023;-63
2023/10/06 12:08:52;;;;;;;20.25;16.20;;;;;;;;;;5090879;27;20803;-62
2023/10/06 12:11:21;;;;;;;22.08;17.70;;;;;;;;;;5090564;27;20023;-62
2023/10/06 12:13:46;;;;;;;22.88;16.88;;;;;;;;;;5086269;27;20016;-63
2023/10/06 12:16:13;;;;;;;22.95;17.48;;;;;;;;;;5084205;27;20096;-62
2023/10/06 12:18:38;;;;;;;20.80;16.05;;;;;;;;;;5070286;28;20023;-62
2023/10/06 12:21:06;;;;;;;23.93;17.47;;;;;;;;;;5087518;27;20097;-63
2023/10/06 12:23:32;;;;;;;22.17;17.15;;;;;;;;;;5090846;27;20261;-62
2023/10/06 12:25:57;;;;;;;23.95;17.80;;;;;;;;;;5088702;27;20082;-62
2023/10/06 12:28:25;;;;;;;22.98;17.33;;;;;;;;;;5083885;27;20332;-62
2023/10/06 12:30:51;;;;;;;26.50;18.30;;;;;;;;;;5071825;27;20031;-63
2023/10/06 12:33:16;;;;;;;24.75;19.70;;;;;;;;;;5097436;27;20008;-63
2023/10/06 12:35:41;;;;;;;23.85;19.27;;;;;;;;;;5072780;27;20118;-62
2023/10/06 12:38:08;;;;;;;25.55;19.02;;;;;;;;;;5074701;28;20024;-62
2023/10/06 12:40:38;;;;;;;26.83;18.15;;;;;;;;;;5076342;28;20134;-62
2023/10/06 12:43:03;;;;;;;22.25;17.65;;;;;;;;;;5090040;27;20023;-61
2023/10/06 12:45:29;;;;;;;21.60;16.17;;;;;;;;;;5087122;27;20054;-62
2023/10/06 12:47:54;;;;;;;24.23;16.02;;;;;;;;;;5069032;27;20334;-63
2023/10/06 12:50:20;;;;;;;26.25;17.20;;;;;;;;;;5071758;28;20044;-62
2023/10/06 12:52:49;;;;;;;22.23;16.92;;;;;;;;;;5089854;27;20023;-62
2023/10/06 12:55:15;;;;;;;23.27;17.47;;;;;;;;;;5097350;27;20035;-62
2023/10/06 12:57:40;;;;;;;20.30;16.88;;;;;;;;;;5078922;27;20024;-63
2023/10/06 13:00:09;;;;;;;21.73;16.77;;;;;;;;;;5084565;27;20386;-60
2023/10/06 13:02:38;;;;;;;23.30;16.42;;;;;;;;;;5078435;27;20033;-59
2023/10/06 13:05:13;;;;;;;22.67;16.98;;;;;;;;;;5065764;28;20039;-59
2023/10/06 13:07:42;;;;;;;21.17;16.52;;;;;;;;;;5080563;28;20182;-59
2023/10/06 13:10:08;;;;;;;24.08;16.77;;;;;;;;;;5073358;28;20048;-59
2023/10/06 13:12:42;;;;;;;23.52;17.17;;;;;;;;;;5079951;27;20106;-59
2023/10/06 13:15:14;;;;;;;18.70;15.90;;;;;;;;;;5077769;28;20019;-60
2023/10/06 13:17:40;;;;;;;21.45;16.27;;;;;;;;;;5075999;27;20024;-59
2023/10/06 13:20:09;;;;;;;20.85;16.80;;;;;;;;;;5078973;27;20068;-60
2023/10/06 13:22:37;;;;;;;21.05;16.48;;;;;;;;;;5077112;27;20026;-60
2023/10/06 13:25:04;;;;;;;20.67;16.10;;;;;;;;;;5062589;28;20342;-59
2023/10/06 13:27:29;;;;;;;21.60;16.60;;;;;;;;;;5062820;28;20035;-59
2023/10/06 13:29:55;;;;;;;21.10;15.20;;;;;;;;;;5077236;27;20027;-60
2023/10/06 13:32:21;;;;;;;21.27;16.65;;;;;;;;;;5061072;27;20024;-59
2023/10/06 13:34:47;;;;;;;20.98;16.50;;;;;;;;;;5076073;28;20115;-59
2023/10/06 13:37:14;;;;;;;20.15;15.40;;;;;;;;;;5062912;27;20979;-60
2023/10/06 13:39:39;;;;;;;20.02;15.73;;;;;;;;;;5079984;27;20020;-60
2023/10/06 13:42:05;;;;;;;20.67;15.48;;;;;;;;;;5079150;28;20030;-60
2023/10/06 13:44:31;;;;;;;21.37;15.03;;;;;;;;;;5072848;28;20988;-59
2023/10/06 13:46:56;;;;;;;20.30;16.13;;;;;;;;;;5078781;28;20260;-59
2023/10/06 13:49:22;;;;;;;22.20;15.98;;;;;;;;;;5071415;28;20052;-60
2023/10/06 13:51:47;;;;;;;21.45;15.43;;;;;;;;;;5057883;28;20062;-60
2023/10/06 13:54:13;;;;;;;18.73;15.63;;;;;;;;;;5047423;28;20025;-60
2023/10/06 13:56:39;;;;;;;21.98;15.73;;;;;;;;;;5054830;28;20017;-62
2023/10/06 13:59:10;;;;;;;19.02;15.52;;;;;;;;;;5055881;28;20061;-59
2023/10/06 14:01:35;;;;;;;21.13;15.70;;;;;;;;;;5057304;28;20586;-60
2023/10/06 14:04:03;;;;;;;19.17;15.63;;;;;;;;;;5058054;28;20024;-59
2023/10/06 14:06:28;;;;;;;20.38;16.15;;;;;;;;;;5059031;28;20020;-59
2023/10/06 14:08:53;;;;;;;19.23;16.17;;;;;;;;;;5057931;28;20031;-60
2023/10/06 14:11:21;;;;;;;21.23;15.13;;;;;;;;;;5043528;28;20036;-60
2023/10/06 14:13:49;;;;;;;19.65;15.63;;;;;;;;;;5057442;28;20361;-59
2023/10/06 14:16:22;;;;;;;19.35;15.68;;;;;;;;;;5042137;28;20930;-60
2023/10/06 14:18:49;;;;;;;21.00;16.15;;;;;;;;;;5063815;28;20012;-59
2023/10/06 14:21:14;;;;;;;18.55;14.65;;;;;;;;;;5046273;28;20016;-60
2023/10/06 14:23:43;;;;;;;20.20;15.30;;;;;;;;;;5045258;28;20023;-59
2023/10/06 14:26:10;;;;;;;19.80;15.80;;;;;;;;;;5061857;28;20031;-59
2023/10/06 14:28:39;;;;;;;22.15;16.90;;;;;;;;;;5056396;28;20039;-60
2023/10/06 14:33:57;;;;;;;20.95;15.65;;;;;;;;;;5062442;28;20085;-60
2023/10/06 14:36:28;;;;;;;21.50;15.15;;;;;;;;;;5062355;28;20145;-59
2023/10/06 14:47:09;;;;;;;18.25;14.30;;;;;;;;;;5061821;28;20035;-60
2023/10/06 14:49:39;;;;;;;20.13;15.93;;;;;;;;;;5045601;28;20047;-60
2023/10/06 14:52:07;;;;;;;21.27;15.50;;;;;;;;;;5074792;28;20023;-60
2023/10/06 14:54:38;;;;;;;17.73;14.27;;;;;;;;;;5083154;27;20082;-59
2023/10/06 14:57:05;;;;;;;19.02;14.93;;;;;;;;;;5081654;27;20020;-59